createdAt,value
2018-06-25T00:01:07.474Z,945.31
2018-06-25T00:02:15.574Z,945.36
2018-06-25T00:03:23.628Z,945.34
2018-06-25T00:04:31.810Z,945.36
2018-06-25T00:05:39.759Z,945.34
2018-06-25T00:06:47.818Z,945.31
2018-06-25T00:07:55.896Z,945.29
2018-06-25T00:09:03.964Z,945.32
2018-06-25T00:10:12.138Z,945.30
2018-06-25T00:11:20.103Z,945.27
2018-06-25T00:12:28.175Z,945.28
2018-06-25T00:13:36.230Z,945.27
2018-06-25T00:14:44.300Z,945.29
2018-06-25T00:15:52.490Z,945.31
2018-06-25T00:17:00.441Z,945.33
2018-06-25T00:18:08.499Z,945.33
2018-06-25T00:19:16.580Z,945.35
2018-06-25T00:20:24.639Z,945.32
2018-06-25T00:21:32.821Z,945.30
2018-06-25T00:22:40.785Z,945.31
2018-06-25T00:23:48.832Z,945.35
2018-06-25T00:24:56.887Z,945.39
2018-06-25T00:26:05.012Z,945.37
2018-06-25T00:27:13.138Z,945.33
2018-06-25T00:28:21.123Z,945.31
2018-06-25T00:29:29.176Z,945.28
2018-06-25T00:30:37.223Z,945.26
2018-06-25T00:31:45.307Z,945.27
2018-06-25T00:32:53.429Z,945.25
2018-06-25T00:34:01.488Z,945.31
2018-06-25T00:35:09.520Z,945.32
2018-06-25T00:36:17.544Z,945.29
2018-06-25T00:37:25.651Z,945.33
2018-06-25T00:38:33.700Z,945.28
2018-06-25T00:39:41.762Z,945.30
2018-06-25T00:40:49.871Z,945.31
2018-06-25T00:41:58.003Z,945.27
2018-06-25T00:43:06.002Z,945.30
2018-06-25T00:44:14.028Z,945.32
2018-06-25T00:45:22.103Z,945.31
2018-06-25T00:46:30.159Z,945.34
2018-06-25T00:47:38.268Z,945.34
2018-06-25T00:48:46.299Z,945.34
2018-06-25T00:49:54.360Z,945.33
2018-06-25T00:51:02.431Z,945.34
2018-06-25T00:52:10.499Z,945.31
2018-06-25T00:53:18.673Z,945.30
2018-06-25T00:54:26.617Z,945.31
2018-06-25T00:55:34.688Z,945.29
2018-06-25T00:56:42.764Z,945.31
2018-06-25T00:57:50.881Z,945.29
2018-06-25T00:58:59.012Z,945.32
2018-06-25T01:00:06.945Z,945.36
2018-06-25T01:01:15.005Z,945.38
2018-06-25T01:02:23.095Z,945.37
2018-06-25T01:03:31.158Z,945.41
2018-06-25T01:04:39.349Z,945.40
2018-06-25T01:05:47.275Z,945.40
2018-06-25T01:06:55.381Z,945.39
2018-06-25T01:08:03.428Z,945.37
2018-06-25T01:09:11.506Z,945.37
2018-06-25T01:10:19.693Z,945.38
2018-06-25T01:11:27.605Z,945.39
2018-06-25T01:12:35.742Z,945.38
2018-06-25T01:13:43.755Z,945.41
2018-06-25T01:14:51.844Z,945.39
2018-06-25T01:16:00.021Z,945.39
2018-06-25T01:17:07.982Z,945.38
2018-06-25T01:18:16.037Z,945.37
2018-06-25T01:19:24.123Z,945.36
2018-06-25T01:20:32.173Z,945.34
2018-06-25T01:21:40.352Z,945.36
2018-06-25T01:22:48.299Z,945.36
2018-06-25T01:23:56.372Z,945.34
2018-06-25T01:25:04.433Z,945.33
2018-06-25T01:26:12.499Z,945.33
2018-06-25T01:27:20.690Z,945.30
2018-06-25T01:28:28.671Z,945.32
2018-06-25T01:29:36.706Z,945.31
2018-06-25T01:30:44.778Z,945.29
2018-06-25T01:31:52.853Z,945.27
2018-06-25T01:33:00.960Z,945.25
2018-06-25T01:34:08.989Z,945.33
2018-06-25T01:35:17.033Z,945.27
2018-06-25T01:36:25.126Z,945.25
2018-06-25T01:37:33.304Z,945.27
2018-06-25T01:38:41.244Z,945.28
2018-06-25T01:39:49.324Z,945.26
2018-06-25T01:40:57.369Z,945.25
2018-06-25T01:42:05.442Z,945.24
2018-06-25T01:43:13.630Z,945.21
2018-06-25T01:44:21.593Z,945.23
2018-06-25T01:45:29.780Z,945.17
2018-06-25T01:46:37.700Z,945.17
2018-06-25T01:47:45.778Z,945.15
2018-06-25T01:48:53.970Z,945.18
2018-06-25T01:50:01.932Z,945.16
2018-06-25T01:51:09.997Z,945.20
2018-06-25T01:52:18.049Z,945.20
2018-06-25T01:53:26.124Z,945.20
2018-06-25T01:54:34.300Z,945.20
2018-06-25T01:55:42.254Z,945.19
2018-06-25T01:56:50.336Z,945.17
2018-06-25T01:57:58.398Z,945.16
2018-06-25T01:59:06.572Z,945.13
2018-06-25T02:00:14.646Z,945.14
2018-06-25T02:01:22.597Z,945.15
2018-06-25T02:02:30.681Z,945.13
2018-06-25T02:03:38.733Z,945.13
2018-06-25T02:04:46.782Z,945.10
2018-06-25T02:05:54.977Z,945.10
2018-06-25T02:07:02.949Z,945.14
2018-06-25T02:08:10.983Z,945.13
2018-06-25T02:09:19.058Z,945.14
2018-06-25T02:10:27.099Z,945.14
2018-06-25T02:11:35.234Z,945.17
2018-06-25T02:12:43.271Z,945.19
2018-06-25T02:13:51.332Z,945.20
2018-06-25T02:14:59.503Z,945.20
2018-06-25T02:16:07.429Z,945.19
2018-06-25T02:17:15.625Z,945.18
2018-06-25T02:18:23.577Z,945.17
2018-06-25T02:19:31.655Z,945.18
2018-06-25T02:20:39.712Z,945.21
2018-06-25T02:21:47.775Z,945.22
2018-06-25T02:22:55.894Z,945.21
2018-06-25T02:24:03.911Z,945.19
2018-06-25T02:25:11.973Z,945.19
2018-06-25T02:26:20.060Z,945.23
2018-06-25T02:27:28.161Z,945.21
2018-06-25T02:28:36.170Z,945.23
2018-06-25T02:29:44.233Z,945.24
2018-06-25T02:30:52.407Z,945.29
2018-06-25T02:32:00.379Z,945.25
2018-06-25T02:33:08.494Z,945.29
2018-06-25T02:34:16.496Z,945.21
2018-06-25T02:35:24.569Z,945.22
2018-06-25T02:36:32.631Z,945.22
2018-06-25T02:37:40.760Z,945.22
2018-06-25T02:38:48.766Z,945.18
2018-06-25T02:39:56.802Z,945.22
2018-06-25T02:41:04.881Z,945.18
2018-06-25T02:42:12.958Z,945.22
2018-06-25T02:43:21.133Z,945.19
2018-06-25T02:44:29.076Z,945.21
2018-06-25T02:45:37.132Z,945.20
2018-06-25T02:46:45.270Z,945.22
2018-06-25T02:47:53.277Z,945.20
2018-06-25T02:49:01.465Z,945.19
2018-06-25T02:50:09.409Z,945.19
2018-06-25T02:51:17.463Z,945.16
2018-06-25T02:52:25.542Z,945.18
2018-06-25T02:53:33.608Z,945.19
2018-06-25T02:54:41.787Z,945.15
2018-06-25T02:55:49.736Z,945.16
2018-06-25T02:56:57.795Z,945.17
2018-06-25T02:58:05.862Z,945.20
2018-06-25T02:59:13.985Z,945.20
2018-06-25T03:00:22.041Z,945.21
2018-06-25T03:01:30.072Z,945.24
2018-06-25T03:02:38.187Z,945.25
2018-06-25T03:03:46.199Z,945.20
2018-06-25T03:04:54.273Z,945.23
2018-06-25T03:06:02.437Z,945.18
2018-06-25T03:07:10.397Z,945.17
2018-06-25T03:08:18.451Z,945.17
2018-06-25T03:09:26.527Z,945.17
2018-06-25T03:10:34.586Z,945.14
2018-06-25T03:11:42.704Z,945.14
2018-06-25T03:12:50.738Z,945.19
2018-06-25T03:13:58.791Z,945.18
2018-06-25T03:15:06.841Z,945.16
2018-06-25T03:16:14.929Z,945.14
2018-06-25T03:17:23.092Z,945.16
2018-06-25T03:18:31.049Z,945.17
2018-06-25T03:19:39.102Z,945.15
2018-06-25T03:20:47.154Z,945.13
2018-06-25T03:21:55.231Z,945.16
2018-06-25T03:23:03.350Z,945.16
2018-06-25T03:24:11.377Z,945.19
2018-06-25T03:25:19.430Z,945.17
2018-06-25T03:26:27.485Z,945.22
2018-06-25T03:27:35.604Z,945.25
2018-06-25T03:28:43.647Z,945.21
2018-06-25T03:29:51.708Z,945.24
2018-06-25T03:30:59.763Z,945.28
2018-06-25T03:32:07.845Z,945.26
2018-06-25T03:33:16.020Z,945.31
2018-06-25T03:34:23.958Z,945.29
2018-06-25T03:35:32.025Z,945.33
2018-06-25T03:36:40.088Z,945.33
2018-06-25T03:37:48.200Z,945.33
2018-06-25T03:38:56.214Z,945.34
2018-06-25T03:40:04.285Z,945.32
2018-06-25T03:41:12.338Z,945.29
2018-06-25T03:42:20.424Z,945.29
2018-06-25T03:43:28.481Z,945.31
2018-06-25T03:44:36.559Z,945.33
2018-06-25T03:45:44.614Z,945.33
2018-06-25T03:46:52.676Z,945.30
2018-06-25T03:48:00.798Z,945.35
2018-06-25T03:49:08.918Z,945.34
2018-06-25T03:50:16.868Z,945.33
2018-06-25T03:51:24.931Z,945.32
2018-06-25T03:52:33.113Z,945.33
2018-06-25T03:53:41.070Z,945.34
2018-06-25T03:54:49.143Z,945.33
2018-06-25T03:55:57.179Z,945.37
2018-06-25T03:57:05.276Z,945.43
2018-06-25T03:58:13.444Z,945.43
2018-06-25T03:59:21.398Z,945.44
2018-06-25T04:00:29.468Z,945.47
2018-06-25T04:01:37.496Z,945.45
2018-06-25T04:02:47.184Z,945.48
2018-06-25T04:03:53.763Z,945.49
2018-06-25T04:05:01.763Z,945.49
2018-06-25T04:06:09.793Z,945.49
2018-06-25T04:07:17.991Z,945.53
2018-06-25T04:08:25.922Z,945.55
2018-06-25T04:09:34.135Z,945.51
2018-06-25T04:10:42.057Z,945.54
2018-06-25T04:11:50.128Z,945.56
2018-06-25T04:12:58.181Z,945.54
2018-06-25T04:14:06.260Z,945.53
2018-06-25T04:15:15.355Z,945.52
2018-06-25T04:16:22.388Z,945.55
2018-06-25T04:17:30.437Z,945.50
2018-06-25T04:18:38.506Z,945.52
2018-06-25T04:19:46.577Z,945.50
2018-06-25T04:20:54.688Z,945.51
2018-06-25T04:22:02.715Z,945.52
2018-06-25T04:23:10.882Z,945.51
2018-06-25T04:24:18.838Z,945.54
2018-06-25T04:25:26.885Z,945.54
2018-06-25T04:26:35.028Z,945.57
2018-06-25T04:27:43.682Z,945.56
2018-06-25T04:28:51.099Z,945.60
2018-06-25T04:29:59.159Z,945.62
2018-06-25T04:31:07.203Z,945.58
2018-06-25T04:32:15.396Z,945.66
2018-06-25T04:33:23.364Z,945.65
2018-06-25T04:34:31.440Z,945.61
2018-06-25T04:35:39.487Z,945.65
2018-06-25T04:36:48.080Z,945.66
2018-06-25T04:37:55.692Z,945.68
2018-06-25T04:39:03.808Z,945.69
2018-06-25T04:40:11.830Z,945.68
2018-06-25T04:41:19.872Z,945.73
2018-06-25T04:42:27.915Z,945.74
2018-06-25T04:43:35.941Z,945.76
2018-06-25T04:44:44.408Z,945.74
2018-06-25T04:45:52.075Z,945.78
2018-06-25T04:47:00.148Z,945.81
2018-06-25T04:48:08.329Z,945.79
2018-06-25T04:49:16.296Z,945.80
2018-06-25T04:50:24.353Z,945.79
2018-06-25T04:51:32.419Z,945.82
2018-06-25T04:52:40.521Z,945.77
2018-06-25T04:53:48.543Z,945.81
2018-06-25T04:54:56.711Z,945.82
2018-06-25T04:56:04.675Z,945.83
2018-06-25T04:57:12.736Z,945.84
2018-06-25T04:58:20.907Z,945.83
2018-06-25T04:59:28.866Z,945.85
2018-06-25T05:00:36.925Z,945.79
2018-06-25T05:01:45.007Z,945.85
2018-06-25T05:02:53.065Z,945.85
2018-06-25T05:04:01.185Z,945.85
2018-06-25T05:05:09.199Z,945.83
2018-06-25T05:06:17.246Z,945.89
2018-06-25T05:07:25.324Z,945.89
2018-06-25T05:08:33.408Z,945.91
2018-06-25T05:09:41.588Z,945.94
2018-06-25T05:10:49.589Z,945.93
2018-06-25T05:11:57.568Z,945.91
2018-06-25T05:13:05.701Z,945.96
2018-06-25T05:14:13.731Z,945.94
2018-06-25T05:15:21.841Z,945.91
2018-06-25T05:16:29.873Z,945.91
2018-06-25T05:17:37.933Z,945.92
2018-06-25T05:18:46.007Z,945.92
2018-06-25T05:19:54.061Z,945.90
2018-06-25T05:21:02.175Z,945.92
2018-06-25T05:22:10.200Z,945.90
2018-06-25T05:23:18.286Z,945.91
2018-06-25T05:24:26.329Z,945.90
2018-06-25T05:25:34.403Z,945.92
2018-06-25T05:26:42.576Z,945.92
2018-06-25T05:27:50.579Z,945.94
2018-06-25T05:28:58.614Z,945.99
2018-06-25T05:30:06.662Z,945.98
2018-06-25T05:31:14.730Z,946.03
2018-06-25T05:32:22.911Z,946.04
2018-06-25T05:33:30.862Z,946.02
2018-06-25T05:34:38.942Z,946.03
2018-06-25T05:35:46.964Z,946.04
2018-06-25T05:36:55.061Z,946.04
2018-06-25T05:38:03.178Z,946.07
2018-06-25T05:39:11.205Z,946.08
2018-06-25T05:40:19.267Z,946.10
2018-06-25T05:41:27.300Z,946.13
2018-06-25T05:42:35.530Z,946.13
2018-06-25T05:43:43.462Z,946.14
2018-06-25T05:44:51.532Z,946.16
2018-06-25T05:45:59.641Z,946.18
2018-06-25T05:47:07.643Z,946.19
2018-06-25T05:48:15.838Z,946.19
2018-06-25T05:49:23.794Z,946.16
2018-06-25T05:50:31.867Z,946.21
2018-06-25T05:51:39.935Z,946.22
2018-06-25T05:52:47.998Z,946.19
2018-06-25T05:53:56.120Z,946.21
2018-06-25T05:55:04.130Z,946.22
2018-06-25T05:56:12.198Z,946.28
2018-06-25T05:57:20.275Z,946.26
2018-06-25T05:58:28.444Z,946.25
2018-06-25T05:59:36.456Z,946.30
2018-06-25T06:00:44.468Z,946.31
2018-06-25T06:01:52.547Z,946.34
2018-06-25T06:03:00.595Z,946.33
2018-06-25T06:04:08.791Z,946.31
2018-06-25T06:05:16.832Z,946.36
2018-06-25T06:06:24.805Z,946.30
2018-06-25T06:07:32.872Z,946.36
2018-06-25T06:08:40.933Z,946.37
2018-06-25T06:09:48.995Z,946.40
2018-06-25T06:10:57.163Z,946.38
2018-06-25T06:12:05.133Z,946.40
2018-06-25T06:13:13.255Z,946.42
2018-06-25T06:14:21.395Z,946.40
2018-06-25T06:15:29.358Z,946.43
2018-06-25T06:16:37.496Z,946.45
2018-06-25T06:17:45.525Z,946.44
2018-06-25T06:18:53.558Z,946.43
2018-06-25T06:20:01.610Z,946.46
2018-06-25T06:21:09.679Z,946.46
2018-06-25T06:22:17.913Z,946.50
2018-06-25T06:23:25.809Z,946.50
2018-06-25T06:24:33.897Z,946.53
2018-06-25T06:25:41.950Z,946.51
2018-06-25T06:26:50.022Z,946.51
2018-06-25T06:27:58.130Z,946.59
2018-06-25T06:29:06.147Z,946.61
2018-06-25T06:30:14.337Z,946.64
2018-06-25T06:31:22.284Z,946.63
2018-06-25T06:32:30.413Z,946.68
2018-06-25T06:33:38.425Z,946.67
2018-06-25T06:34:46.486Z,946.73
2018-06-25T06:35:54.549Z,946.76
2018-06-25T06:37:02.651Z,946.76
2018-06-25T06:38:10.812Z,946.76
2018-06-25T06:39:18.759Z,946.83
2018-06-25T06:40:26.816Z,946.91
2018-06-25T06:41:34.901Z,946.91
2018-06-25T06:42:42.961Z,946.91
2018-06-25T06:43:51.157Z,946.96
2018-06-25T06:44:59.096Z,946.96
2018-06-25T06:46:07.250Z,946.99
2018-06-25T06:47:15.235Z,947.05
2018-06-25T06:48:23.303Z,947.11
2018-06-25T06:49:31.504Z,947.15
2018-06-25T06:50:39.465Z,947.12
2018-06-25T06:51:47.498Z,947.11
2018-06-25T06:52:55.584Z,947.07
2018-06-25T06:54:03.651Z,947.06
2018-06-25T06:55:11.837Z,947.08
2018-06-25T06:56:19.788Z,947.16
2018-06-25T06:57:27.924Z,947.27
2018-06-25T06:58:35.921Z,947.24
2018-06-25T06:59:43.996Z,947.24
2018-06-25T07:00:52.174Z,947.29
2018-06-25T07:02:00.248Z,947.55
2018-06-25T07:03:08.194Z,947.46
2018-06-25T07:04:16.266Z,947.69
2018-06-25T07:05:24.358Z,947.73
2018-06-25T07:07:43.096Z,947.76
2018-06-25T07:08:51.178Z,947.36
2018-06-25T07:09:59.250Z,947.38
2018-06-25T07:11:07.298Z,947.13
2018-06-25T07:12:15.494Z,947.26
2018-06-25T07:13:23.450Z,947.40
2018-06-25T07:14:31.524Z,947.65
2018-06-25T07:15:39.599Z,947.54
2018-06-25T07:16:47.664Z,947.39
2018-06-25T07:17:55.787Z,947.61
2018-06-25T07:19:03.821Z,947.48
2018-06-25T07:20:11.892Z,947.70
2018-06-25T07:21:19.950Z,947.44
2018-06-25T07:22:28.143Z,947.52
2018-06-25T07:23:36.095Z,947.69
2018-06-25T07:24:44.178Z,947.46
2018-06-25T07:25:52.243Z,947.39
2018-06-25T07:27:00.330Z,947.54
2018-06-25T07:28:08.435Z,947.44
2018-06-25T07:29:16.487Z,947.40
2018-06-25T07:30:24.539Z,947.39
2018-06-25T07:31:32.623Z,947.33
2018-06-25T07:32:40.793Z,947.20
2018-06-25T07:33:48.771Z,947.10
2018-06-25T07:34:56.816Z,947.06
2018-06-25T07:36:04.899Z,947.01
2018-06-25T07:37:12.974Z,947.01
2018-06-25T07:38:21.158Z,946.91
2018-06-25T07:39:29.168Z,946.93
2018-06-25T07:40:37.170Z,946.89
2018-06-25T07:41:45.283Z,946.91
2018-06-25T07:42:53.323Z,946.92
2018-06-25T07:44:01.523Z,946.91
2018-06-25T07:45:09.479Z,946.88
2018-06-25T07:46:17.529Z,946.90
2018-06-25T07:47:25.726Z,946.93
2018-06-25T07:48:33.699Z,946.91
2018-06-25T07:49:41.866Z,946.94
2018-06-25T07:50:49.843Z,946.93
2018-06-25T07:51:57.910Z,946.94
2018-06-25T07:53:05.969Z,946.95
2018-06-25T07:54:14.049Z,946.95
2018-06-25T07:55:22.226Z,946.93
2018-06-25T07:56:30.176Z,946.91
2018-06-25T07:57:38.246Z,946.95
2018-06-25T07:58:46.326Z,946.93
2018-06-25T07:59:54.387Z,946.96
2018-06-25T08:01:02.583Z,946.97
2018-06-25T08:02:10.654Z,946.96
2018-06-25T08:03:18.639Z,946.98
2018-06-25T08:04:26.681Z,947.02
2018-06-25T08:05:34.745Z,947.05
2018-06-25T08:06:42.872Z,947.06
2018-06-25T08:07:50.889Z,947.06
2018-06-25T08:08:58.943Z,947.07
2018-06-25T08:10:07.022Z,947.06
2018-06-25T08:11:15.100Z,947.04
2018-06-25T08:12:23.269Z,947.02
2018-06-25T08:13:31.237Z,947.04
2018-06-25T08:14:39.307Z,947.02
2018-06-25T08:15:47.369Z,947.03
2018-06-25T08:16:55.444Z,947.03
2018-06-25T08:18:03.576Z,947.04
2018-06-25T08:19:11.590Z,947.05
2018-06-25T08:20:19.667Z,947.06
2018-06-25T08:21:27.694Z,947.05
2018-06-25T08:22:35.840Z,947.04
2018-06-25T08:23:43.875Z,947.10
2018-06-25T08:24:51.928Z,947.14
2018-06-25T08:26:00.011Z,947.13
2018-06-25T08:27:08.082Z,947.15
2018-06-25T08:28:16.193Z,947.16
2018-06-25T08:29:24.202Z,947.21
2018-06-25T08:30:32.277Z,947.24
2018-06-25T08:31:40.347Z,947.25
2018-06-25T08:32:48.536Z,947.20
2018-06-25T08:33:56.658Z,947.21
2018-06-25T08:35:04.569Z,947.22
2018-06-25T08:36:12.645Z,947.26
2018-06-25T08:37:20.752Z,947.32
2018-06-25T08:38:28.902Z,947.34
2018-06-25T08:39:36.834Z,947.34
2018-06-25T08:40:44.914Z,947.27
2018-06-25T08:41:52.988Z,947.26
2018-06-25T08:43:01.061Z,947.25
2018-06-25T08:44:09.236Z,947.27
2018-06-25T08:45:17.178Z,947.23
2018-06-25T08:46:25.281Z,947.20
2018-06-25T08:47:33.399Z,947.24
2018-06-25T08:48:41.400Z,947.23
2018-06-25T08:49:49.593Z,947.24
2018-06-25T08:50:57.539Z,947.29
2018-06-25T08:52:05.618Z,947.30
2018-06-25T08:53:13.692Z,947.37
2018-06-25T08:54:21.749Z,947.36
2018-06-25T08:55:29.969Z,947.40
2018-06-25T08:56:37.899Z,947.44
2018-06-25T08:57:45.972Z,947.42
2018-06-25T08:58:54.101Z,947.40
2018-06-25T09:00:02.121Z,947.34
2018-06-25T09:01:10.240Z,947.38
2018-06-25T09:02:18.264Z,947.43
2018-06-25T09:03:26.438Z,947.49
2018-06-25T09:04:34.419Z,947.64
2018-06-25T09:05:42.473Z,947.81
2018-06-25T09:06:50.661Z,947.86
2018-06-25T09:07:58.620Z,947.80
2018-06-25T09:09:06.675Z,947.70
2018-06-25T09:10:14.755Z,947.60
2018-06-25T09:11:22.835Z,947.51
2018-06-25T09:12:30.955Z,947.43
2018-06-25T09:13:38.979Z,947.42
2018-06-25T09:14:47.027Z,947.46
2018-06-25T09:15:55.118Z,947.38
2018-06-25T09:17:03.195Z,947.36
2018-06-25T09:18:11.366Z,947.29
2018-06-25T09:19:19.447Z,947.31
2018-06-25T09:20:27.393Z,947.30
2018-06-25T09:21:35.475Z,947.35
2018-06-25T09:22:43.602Z,947.34
2018-06-25T09:23:51.604Z,947.37
2018-06-25T09:24:59.679Z,947.38
2018-06-25T09:26:07.756Z,947.46
2018-06-25T09:27:15.830Z,947.51
2018-06-25T09:28:23.946Z,947.52
2018-06-25T09:29:31.976Z,947.48
2018-06-25T09:30:40.043Z,947.43
2018-06-25T09:31:48.095Z,947.42
2018-06-25T09:32:56.231Z,947.42
2018-06-25T09:34:04.258Z,947.41
2018-06-25T09:35:12.478Z,947.40
2018-06-25T09:36:20.403Z,947.41
2018-06-25T09:37:28.490Z,947.40
2018-06-25T09:38:36.648Z,947.42
2018-06-25T09:39:44.602Z,947.42
2018-06-25T09:40:52.723Z,947.42
2018-06-25T09:42:00.747Z,947.45
2018-06-25T09:43:08.815Z,947.47
2018-06-25T09:44:17.008Z,947.43
2018-06-25T09:45:24.964Z,947.43
2018-06-25T09:46:33.043Z,947.44
2018-06-25T09:47:41.104Z,947.46
2018-06-25T09:48:49.184Z,947.46
2018-06-25T09:49:57.343Z,947.47
2018-06-25T09:51:05.437Z,947.48
2018-06-25T09:52:13.380Z,947.46
2018-06-25T09:53:21.466Z,947.48
2018-06-25T09:54:29.532Z,947.49
2018-06-25T09:55:37.628Z,947.53
2018-06-25T09:56:45.679Z,947.55
2018-06-25T09:57:53.743Z,947.51
2018-06-25T09:59:01.822Z,947.55
2018-06-25T10:00:10.018Z,947.50
2018-06-25T10:01:18.076Z,947.53
2018-06-25T10:02:26.026Z,947.51
2018-06-25T10:03:34.160Z,947.53
2018-06-25T10:04:42.170Z,947.54
2018-06-25T10:05:50.243Z,947.52
2018-06-25T10:06:58.437Z,947.51
2018-06-25T10:08:06.395Z,947.53
2018-06-25T10:09:14.455Z,947.59
2018-06-25T10:10:22.545Z,947.58
2018-06-25T10:11:30.599Z,947.62
2018-06-25T10:12:38.717Z,947.63
2018-06-25T10:13:46.728Z,947.67
2018-06-25T10:14:54.805Z,947.70
2018-06-25T10:16:02.861Z,947.71
2018-06-25T10:17:10.947Z,947.67
2018-06-25T10:18:19.050Z,947.67
2018-06-25T10:19:27.073Z,947.69
2018-06-25T10:20:35.164Z,947.71
2018-06-25T10:21:43.223Z,947.75
2018-06-25T10:22:51.406Z,947.73
2018-06-25T10:23:59.350Z,947.75
2018-06-25T10:25:07.413Z,947.71
2018-06-25T10:26:15.515Z,947.70
2018-06-25T10:27:23.576Z,947.73
2018-06-25T10:28:31.826Z,947.73
2018-06-25T10:29:39.720Z,947.76
2018-06-25T10:30:47.782Z,947.76
2018-06-25T10:31:55.856Z,947.75
2018-06-25T10:33:03.922Z,947.74
2018-06-25T10:34:12.107Z,947.75
2018-06-25T10:35:20.071Z,947.80
2018-06-25T10:36:28.127Z,947.79
2018-06-25T10:37:36.329Z,947.86
2018-06-25T10:38:44.316Z,947.80
2018-06-25T10:39:52.462Z,947.78
2018-06-25T10:41:00.429Z,947.80
2018-06-25T10:42:08.541Z,947.87
2018-06-25T10:43:16.567Z,947.87
2018-06-25T10:44:24.621Z,947.89
2018-06-25T10:45:32.801Z,947.80
2018-06-25T10:46:40.765Z,947.82
2018-06-25T10:47:48.843Z,947.82
2018-06-25T10:48:56.884Z,947.87
2018-06-25T10:50:04.977Z,947.98
2018-06-25T10:51:13.155Z,947.98
2018-06-25T10:52:21.131Z,948.01
2018-06-25T10:53:29.183Z,948.01
2018-06-25T10:54:37.260Z,948.04
2018-06-25T10:55:45.329Z,948.06
2018-06-25T10:56:53.512Z,948.03
2018-06-25T10:58:01.483Z,948.02
2018-06-25T10:59:09.545Z,947.97
2018-06-25T11:00:17.796Z,948.05
2018-06-25T11:01:25.691Z,948.07
2018-06-25T11:02:33.792Z,948.16
2018-06-25T11:03:41.820Z,948.20
2018-06-25T11:04:49.890Z,948.16
2018-06-25T11:05:58.061Z,948.17
2018-06-25T11:07:06.067Z,948.10
2018-06-25T11:08:14.214Z,948.10
2018-06-25T11:09:22.174Z,947.98
2018-06-25T11:10:30.238Z,947.90
2018-06-25T11:11:38.322Z,947.83
2018-06-25T11:12:46.430Z,947.80
2018-06-25T11:13:54.574Z,947.88
2018-06-25T11:15:02.526Z,947.85
2018-06-25T11:16:10.593Z,947.85
2018-06-25T11:17:18.683Z,947.89
2018-06-25T11:18:26.738Z,947.92
2018-06-25T11:19:34.931Z,947.76
2018-06-25T11:20:42.900Z,947.80
2018-06-25T11:21:50.963Z,947.80
2018-06-25T11:22:59.132Z,947.81
2018-06-25T11:24:07.098Z,947.82
2018-06-25T11:25:15.296Z,947.86
2018-06-25T11:26:23.251Z,947.89
2018-06-25T11:27:31.422Z,947.89
2018-06-25T11:28:39.415Z,947.74
2018-06-25T11:29:47.457Z,947.68
2018-06-25T11:30:55.646Z,947.71
2018-06-25T11:32:03.615Z,947.66
2018-06-25T11:33:11.684Z,947.70
2018-06-25T11:34:19.757Z,947.68
2018-06-25T11:35:27.835Z,947.74
2018-06-25T11:36:36.015Z,947.74
2018-06-25T11:37:44.026Z,947.76
2018-06-25T11:38:52.044Z,947.77
2018-06-25T11:40:00.135Z,947.78
2018-06-25T11:41:08.190Z,947.76
2018-06-25T11:42:16.385Z,947.78
2018-06-25T11:43:24.329Z,947.79
2018-06-25T11:44:32.403Z,947.80
2018-06-25T11:45:40.488Z,947.78
2018-06-25T11:46:48.555Z,947.80
2018-06-25T11:47:56.669Z,947.84
2018-06-25T11:49:04.700Z,947.84
2018-06-25T11:50:12.770Z,947.74
2018-06-25T11:51:20.856Z,947.69
2018-06-25T11:52:29.042Z,947.72
2018-06-25T11:53:36.980Z,947.61
2018-06-25T11:54:45.072Z,947.65
2018-06-25T11:55:53.136Z,947.65
2018-06-25T11:57:01.200Z,947.59
2018-06-25T11:58:09.329Z,947.56
2018-06-25T11:59:17.335Z,947.62
2018-06-25T12:00:25.419Z,947.61
2018-06-25T12:01:33.491Z,947.61
2018-06-25T12:02:41.719Z,947.60
2018-06-25T12:03:49.754Z,947.59
2018-06-25T12:04:57.691Z,947.72
2018-06-25T12:06:05.791Z,947.72
2018-06-25T12:07:13.855Z,947.66
2018-06-25T12:08:22.176Z,947.62
2018-06-25T12:09:30.098Z,947.64
2018-06-25T12:10:38.124Z,947.64
2018-06-25T12:11:46.143Z,947.62
2018-06-25T12:12:54.232Z,947.57
2018-06-25T12:14:02.288Z,947.54
2018-06-25T12:15:10.479Z,947.61
2018-06-25T12:16:18.442Z,947.65
2018-06-25T12:17:26.556Z,947.64
2018-06-25T12:18:34.576Z,947.62
2018-06-25T12:19:42.708Z,947.62
2018-06-25T12:20:50.824Z,947.63
2018-06-25T12:21:58.796Z,947.65
2018-06-25T12:23:06.886Z,947.69
2018-06-25T12:24:15.072Z,947.70
2018-06-25T12:25:23.027Z,947.75
2018-06-25T12:26:31.140Z,947.79
2018-06-25T12:27:39.164Z,947.78
2018-06-25T12:28:47.222Z,947.77
2018-06-25T12:29:55.322Z,947.80
2018-06-25T12:31:03.393Z,947.80
2018-06-25T12:32:11.616Z,947.82
2018-06-25T12:33:19.525Z,947.87
2018-06-25T12:34:27.587Z,947.90
2018-06-25T12:35:35.673Z,947.85
2018-06-25T12:36:43.744Z,947.89
2018-06-25T12:37:51.926Z,947.83
2018-06-25T12:38:59.908Z,947.81
2018-06-25T12:40:08.077Z,947.79
2018-06-25T12:41:16.037Z,947.74
2018-06-25T12:42:24.111Z,947.77
2018-06-25T12:43:32.192Z,947.80
2018-06-25T12:44:40.248Z,947.81
2018-06-25T12:45:48.330Z,947.79
2018-06-25T12:46:56.395Z,947.76
2018-06-25T12:48:04.523Z,947.79
2018-06-25T12:49:12.535Z,947.78
2018-06-25T12:50:20.621Z,947.78
2018-06-25T12:51:28.687Z,947.77
2018-06-25T12:52:36.788Z,947.68
2018-06-25T12:53:44.840Z,947.69
2018-06-25T12:54:52.904Z,947.69
2018-06-25T12:56:01.108Z,947.71
2018-06-25T12:57:09.160Z,947.76
2018-06-25T12:58:17.230Z,947.81
2018-06-25T12:59:25.214Z,947.79
2018-06-25T13:00:33.260Z,947.74
2018-06-25T13:01:41.350Z,947.78
2018-06-25T13:02:49.451Z,947.72
2018-06-25T13:03:57.536Z,947.75
2018-06-25T13:05:05.573Z,947.74
2018-06-25T13:06:13.631Z,947.68
2018-06-25T13:07:21.714Z,947.73
2018-06-25T13:08:29.777Z,947.68
2018-06-25T13:09:37.965Z,947.71
2018-06-25T13:10:46.006Z,947.70
2018-06-25T13:11:54.164Z,947.73
2018-06-25T13:13:02.077Z,947.72
2018-06-25T13:14:10.148Z,947.69
2018-06-25T13:15:18.322Z,947.63
2018-06-25T13:16:26.312Z,947.65
2018-06-25T13:17:34.362Z,947.65
2018-06-25T13:18:42.441Z,947.65
2018-06-25T13:19:50.516Z,947.67
2018-06-25T13:20:58.686Z,947.67
2018-06-25T13:22:06.663Z,947.61
2018-06-25T13:23:14.745Z,947.57
2018-06-25T13:24:22.804Z,947.55
2018-06-25T13:25:30.916Z,947.51
2018-06-25T13:26:39.139Z,947.50
2018-06-25T13:27:47.043Z,947.52
2018-06-25T13:28:55.101Z,947.47
2018-06-25T13:30:03.159Z,947.42
2018-06-25T13:31:11.386Z,947.46
2018-06-25T13:32:19.430Z,947.44
2018-06-25T13:33:27.361Z,947.49
2018-06-25T13:34:35.461Z,947.48
2018-06-25T13:35:43.532Z,947.45
2018-06-25T13:36:51.603Z,947.49
2018-06-25T13:37:59.697Z,947.41
2018-06-25T13:39:07.716Z,947.43
2018-06-25T13:40:15.805Z,947.35
2018-06-25T13:41:23.892Z,947.43
2018-06-25T13:42:32.010Z,947.39
2018-06-25T13:43:40.025Z,947.38
2018-06-25T13:44:48.101Z,947.43
2018-06-25T13:45:56.210Z,947.42
2018-06-25T13:47:04.229Z,947.43
2018-06-25T13:48:12.394Z,947.48
2018-06-25T13:49:20.373Z,947.49
2018-06-25T13:50:28.457Z,947.52
2018-06-25T13:51:36.526Z,947.55
2018-06-25T13:52:44.716Z,947.63
2018-06-25T13:53:52.668Z,947.65
2018-06-25T13:55:00.740Z,947.58
2018-06-25T13:56:08.815Z,947.63
2018-06-25T13:57:16.873Z,947.66
2018-06-25T13:58:25.068Z,947.62
2018-06-25T13:59:33.029Z,947.60
2018-06-25T14:00:41.121Z,947.60
2018-06-25T14:01:49.181Z,947.57
2018-06-25T14:02:57.218Z,947.59
2018-06-25T14:04:05.415Z,947.62
2018-06-25T14:05:13.406Z,947.60
2018-06-25T14:06:21.454Z,947.58
2018-06-25T14:07:29.532Z,947.56
2018-06-25T14:08:37.582Z,947.52
2018-06-25T14:09:45.804Z,947.48
2018-06-25T14:10:53.888Z,947.50